x

Corpus Christi, Tx - 60nm Sse Of Corpus Christi, Tx (42020) Wave Buoy

2:50am - Wed 28th Jan 2015 All times are CST. -6 hours from GMT.

  • Sig Wave height 1.3ft
  • Swell Direction
  • Peak Period 3s
  • Average Period 3s
  • Wind
    13mph, 18mph gusts
  • Sea Temp 67°f
  • Air Temp 67°f
  • Sea Pressure 1020.9mb
  • Corpus Christi, Tx - 60nm Sse Of Corpus Christi, Tx
  • Corpus Christi, Tx - 60nm Sse Of Corpus Christi, Tx

More Historic Weather Station data

Upgrade to MSW Pro to gain access to the past 30 days of data for over 8000 Wavebouys and Weather Stations around the globe.

Join Pro

Comparision Forecast

View Surf forecast
   
Wed 01/28 2:50am 1.3ft 3s 3s 13 18 mph 1020.9mb 67f 67f
1:50am 1.3ft 3s 3s 16 18 mph 1020.8mb 67f 67f
12:50am 1ft 3s 3s 13 18 mph 1020.9mb 67f 68f
Tue 01/27 11:50pm 1.3ft 3s 3s 13 16 mph 1020.9mb 67f 68f
10:50pm 1.3ft 3s 3s 13 16 mph 1021.1mb 67f 68f
9:50pm 1ft 3s 3s 13 16 mph 1021.1mb 67f 67f
8:50pm 0.7ft  -  3s 13 16 mph 1021.2mb 67f 67f
7:50pm 0.3ft  -  3s 11 13 mph 1021.1mb 67f 67f
6:50pm 0.3ft  -  3s 9 11 mph 1020.6mb 67f 68f
5:50pm 0.3ft  -  3s 9
mph
1020.5mb 67f 68f
4:50pm 0.7ft  -  3s 7
mph
1020.7mb 68f 68f
3:50pm 0.7ft  -  3s 4 7 mph 1021mb 68f 67f
2:50pm 1ft 3s 3s 7
mph
1021.4mb 67f 66f
1:50pm 1.3ft 3s 3s 9
mph
1022mb 67f 65f
12:50pm 1.3ft 3s 3s 11 13 mph 1022.6mb 67f 65f
11:50am 1.3ft 3s 3s 11 13 mph 1023.4mb 67f 64f
10:50am 1.6ft 3s 3s 13
mph
1023.8mb 67f 63f
9:50am 1.6ft 4s 3s 13 16 mph 1023.7mb 67f 63f
8:50am 1.6ft 4s 3s 13 16 mph 1023.3mb 68f 64f
7:50am 1.6ft 3s 3s 13 16 mph 1022.6mb 68f 64f
6:50am 1.6ft 4s 3s 13 16 mph 1022mb 68f 64f
5:50am 2ft 4s 3s 16 20 mph 1021.4mb 68f 64f
4:50am 1.6ft 3s 3s 16 20 mph 1021.4mb 68f 65f
3:50am 1.3ft 3s 3s 13 18 mph 1021.6mb 68f 66f
2:50am 1.3ft 3s 3s 13 16 mph 1021.8mb 68f 66f
1:50am 1.3ft 3s 3s 11 13 mph 1022.3mb 68f 67f
12:50am 1ft 3s 3s 13 16 mph 1022.5mb 68f 67f
Mon 01/26 11:50pm 1ft 5s 3s 13
mph
1022.7mb 68f 67f
10:50pm 1ft 4s 4s 11
mph
1023.1mb 68f 67f
9:50pm 1ft 4s 4s 11 13 mph 1023.3mb 68f 67f
8:50pm 1ft 4s 4s 11 13 mph 1023.4mb 68f 66f
7:50pm 1ft 4s 4s 9 11 mph 1023.1mb 68f 65f
6:50pm 1ft 5s 4s 7 9 mph 1023.1mb 68f 65f
5:50pm 1.3ft 5s 4s 4 7 mph 1022.8mb 68f 65f
4:50pm 1.3ft 5s 4s 4
mph
1022.7mb 68f 65f
3:50pm 1.3ft 5s 4s 2
mph
1022.4mb 68f 65f
2:50pm 1.3ft 5s 4s 4 7 mph 1022.9mb 68f 64f
1:50pm 1.3ft 5s 4s 4 7 mph 1023.7mb 68f 64f
12:50pm 1.3ft 4s 4s 7 9 mph 1024.5mb 68f 64f
11:50am 1.3ft 4s 4s 9 11 mph 1025.2mb 68f 64f
10:50am 1.3ft 3s 3s 7
mph
1025.7mb 67f 63f
9:50am 1.3ft 3s 3s 9 11 mph 1025.6mb 67f 64f
8:50am 1.3ft 4s 3s 7 9 mph 1025.1mb 67f 64f
7:50am 1.3ft 3s 3s 4 7 mph 1024.7mb 66f 64f
6:50am 1ft 3s 3s 9 11 mph 1024.2mb 66f 64f
5:50am 1ft 3s 3s 9 11 mph 1023.8mb 66f 64f
4:50am 1ft 3s 3s 9 11 mph 1023.3mb 66f 64f
3:50am 0.7ft  -  3s 11 13 mph 1023.1mb 66f 65f
2:50am 0.7ft  -  3s 9 11 mph 1022.9mb 66f 65f
1:50am 0.7ft  -  3s 9
mph
1022.9mb 66f 66f
12:50am 0.7ft  -  3s 9
mph
1022.5mb 66f 66f
Sun 01/25 11:50pm 0.7ft  -  3s 7 9 mph 1022.4mb 66f 66f
10:50pm 0.7ft  -  3s 9 11 mph 1022.5mb 66f 67f
9:50pm 1ft 3s 3s 9 11 mph 1022.1mb 66f 66f
8:50pm 1ft 3s 3s 9
mph
1021.4mb 67f 65f
7:50pm 1ft 3s 3s 9 11 mph 1020.9mb 67f 65f
6:50pm 1.3ft 4s 3s 11
mph
1020.3mb 67f 65f
5:50pm 1.3ft 4s 3s 11 13 mph 1019.5mb 67f 65f
4:50pm 1.6ft 4s 4s 9 11 mph 1019.3mb 67f 65f
3:50pm 1.6ft 4s 4s 9 11 mph 1019mb 67f 64f
2:50pm 2ft 4s 3s 11 13 mph 1018.6mb 67f 63f
1:50pm 2.5ft 4s 4s 13 16 mph 1019.4mb 67f 61f
12:50pm 2.5ft 4s 3s 13 18 mph 1020.1mb 67f 60f
11:50am 2.5ft 4s 4s 18 20 mph 1021.9mb 66f 61f
10:50am 2.5ft 4s 4s 16 18 mph 1020.2mb 66f 60f
9:50am 2.5ft 4s 4s 16 18 mph 1020.3mb 66f 60f
8:50am 2.5ft 5s 4s 16 18 mph 1019.6mb 66f 60f
7:50am 3.5ft 5s 4s 13 16 mph 1019mb 66f 60f
6:50am 3ft 5s 4s 18 20 mph 1019.2mb 66f 60f
5:50am 3.5ft 5s 4s 18 22 mph 1018.6mb 66f 60f
4:50am 3.5ft 5s 4s 18 22 mph 1018.6mb 66f 60f
3:50am 3.5ft 5s 4s 20 22 mph 1019.3mb 66f 60f
2:50am 3.5ft 5s 4s 20 25 mph 1019.7mb 66f 59f
1:50am 2.5ft 4s 4s 22 25 mph 1020mb 66f 60f
12:50am 2ft 4s 3s 20 22 mph 1020.1mb 66f 60f
Sat 01/24 11:50pm 2ft 3s 3s 18 20 mph 1020.6mb 66f 61f
10:50pm 1.3ft 3s 3s 13 18 mph 1020.9mb 66f 61f
9:50pm 1ft 2s 3s 16 18 mph 1021.3mb 66f 60f
8:50pm 1ft 6s 4s 11 16 mph 1021.5mb 66f 61f
7:50pm 1ft 7s 4s 9 11 mph 1021.4mb 66f 60f
6:50pm 1.3ft 7s 4s 7 9 mph 1021.7mb 66f 59f
5:50pm 1.3ft 7s 4s 4 9 mph 1021.7mb 67f 58f
4:50pm 1.6ft 3s 4s 4 9 mph 1022mb 67f 58f
3:50pm 1.6ft 3s 4s 4 7 mph 1022.4mb 66f 57f
2:50pm 2ft 4s 4s 11 13 mph 1023mb 66f 56f
1:50pm 2.5ft 4s 4s 11 13 mph 1023.7mb 66f 55f
12:50pm 3ft 4s 4s 13 16 mph 1024.9mb 66f 54f
11:50am 3.5ft 4s 4s 16 18 mph 1026.1mb 66f 53f
10:50am 2.5ft 4s 4s 16 20 mph 1026.9mb 66f 52f